• Join FlightAware (Why Join?)
  • Login
  • US Flag 
10:31AM EDT


 

Airport Tracker/Info


-or-


 

Live Flight TrackerFlight Track Log ✈ DAL2352 ✈ 07-Jul-2013 ✈ KALB - KATL

Flight Track Log - Related Links

Times and Time Zones

All times are in EDT time to prevent confusion due to time zone crossing. See the DAL2352 flight status page for this flight to view local times or setup timezone preferences in your user account.

Time Position Orientation Groundspeed Altitude Reporting Facility
EDT Latitude Longitude Course Direction KTS MPH feet Rate Location/Type
06:35AM 42.7736 -73.8064 180° South 176 203 1,300  Level Boston Center
06:35AM 42.8108 -73.8183 347° North 218 251 2,000 1,920 Climbing Boston Center
06:36AM 42.8539 -73.8900 309° West 264 304 4,500 2,700 Climbing Boston Center
06:37AM 42.8967 -73.9619 309° West 280 322 7,300 2,700 Climbing Boston Center
06:38AM 42.4257 -74.2532 198° South  Level Estimated
06:38AM 42.9039 -74.0472 277° West 258 297 9,800  Level Boston Center
06:39AM 42.3445 -74.3652 180° South  Level Estimated
06:39AM 42.9000 -74.1689 268° West 282 325 11,000  Level Boston Center
06:40AM 42.2633 -74.4770 180° South  Level Estimated
06:40AM 42.8961 -74.2881 267° West 334 384 12,800  Level Boston Center
06:41AM 42.8317 -74.3964 231° Southwest 342 394 16,000 2,460 Climbing Boston Center
06:42AM 42.7406 -74.3681 167° South 311 358 17,800 1,380 Climbing Boston Center
06:43AM 42.6228 -74.2911 154° Southeast 372 428 18,800 1,020 Climbing Boston Center
06:45AM 42.5217 -74.2289 156° South 423 487 20,100 1,440 Climbing Boston Center
06:46AM 42.3814 -74.1350 154° Southeast 450 518 22,000 1,560 Climbing Boston Center
06:47AM 42.2617 -74.0589 155° Southeast 466 536 23,300 1,380 Climbing Boston Center
06:48AM 42.1328 -74.0442 175° South 465 535 24,800 1,500 Climbing Boston Center
06:49AM 42.0014 -74.0519 183° South 465 535 26,300 1,440 Climbing Boston Center
06:50AM 41.8739 -74.0600 183° South 465 535 27,700 1,260 Climbing Boston Center
06:52AM 41.5756 -74.0767 182° South 459 528 30,800 1,080 Climbing New York Center
06:53AM 41.4750 -74.1686 214° Southwest 418 481 31,400 600 Climbing New York Center
06:54AM 41.3803 -74.2769 221° Southwest 432 497 32,000 300 Climbing New York Center
06:55AM 41.2856 -74.3797 219° Southwest 444 511 32,000  Level New York Center
06:56AM 41.1928 -74.4822 220° Southwest 449 517 32,000  Level New York Center
06:57AM 41.1000 -74.5844 220° Southwest 449 517 32,000  Level New York Center
06:58AM 41.0050 -74.6892 220° Southwest 449 517 32,000  Level New York Center
06:59AM 40.9097 -74.7933 220° Southwest 449 517 32,000  Level New York Center
07:00AM 40.8186 -74.9006 222° Southwest 449 517 32,000  Level New York Center
07:01AM 40.7253 -75.0017 219° Southwest 449 517 32,000  Level New York Center
07:02AM 40.6319 -75.1108 222° Southwest 449 517 32,000  Level New York Center
07:03AM 40.5361 -75.2167 220° Southwest 449 517 32,000  Level New York Center
07:04AM 40.4403 -75.3250 221° Southwest 449 517 32,000  Level New York Center
07:05AM 40.3467 -75.4306 221° Southwest 449 517 32,000  Level New York Center
07:06AM 40.2508 -75.5356 220° Southwest 449 517 32,000  Level New York Center
07:07AM 40.1769 -75.6608 232° Southwest 444 511 32,000  Level New York Center
07:08AM 40.1086 -75.7972 237° Southwest 444 511 32,000  Level New York Center
07:09AM 40.0339 -75.9303 234° Southwest 449 517 32,000  Level New York Center
07:10AM 39.9575 -76.0544 231° Southwest 449 517 32,000  Level New York Center
07:11AM 39.8811 -76.1758 231° Southwest 449 517 32,000  Level New York Center
07:12AM 39.7983 -76.3019 230° Southwest 449 517 32,000  Level New York Center
07:13AM 39.7172 -76.4278 230° Southwest 459 528 32,000  Level New York Center
07:14AM 39.6158 -76.5775 229° Southwest 463 533 32,000  Level Washington Center
07:15AM 39.5336 -76.7000 229° Southwest 458 527 32,000  Level Washington Center
07:16AM 39.4553 -76.8225 230° Southwest 453 521 32,000  Level Washington Center
07:17AM 39.3769 -76.9419 230° Southwest 453 521 32,000  Level Washington Center
07:18AM 39.2983 -77.0694 231° Southwest 453 521 32,000  Level Washington Center
07:19AM 39.2197 -77.1883 230° Southwest 453 521 32,000  Level Washington Center
07:20AM 39.1408 -77.3069 229° Southwest 447 514 32,000  Level Washington Center
07:21AM 39.0578 -77.4253 228° Southwest 447 514 32,000  Level Washington Center
07:22AM 38.9769 -77.5408 228° Southwest 447 514 32,000  Level Washington Center
07:23AM 38.8892 -77.6719 229° Southwest 453 521 32,000  Level Washington Center
07:24AM 38.8036 -77.7972 229° Southwest 453 521 32,000  Level Washington Center
07:25AM 38.7242 -77.9172 230° Southwest 460 529 32,000  Level Washington Center
07:26AM 38.6425 -78.0344 228° Southwest 449 517 32,000  Level Washington Center
07:27AM 38.5608 -78.1539 229° Southwest 449 517 32,000  Level Washington Center
07:28AM 38.4811 -78.2706 229° Southwest 454 522 32,000  Level Washington Center
07:29AM 38.4014 -78.3867 229° Southwest 454 522 32,000  Level Washington Center
07:30AM 38.3194 -78.5028 228° Southwest 454 522 32,000  Level Washington Center
07:31AM 38.2542 -78.6086 232° Southwest 448 516 32,000  Level Washington Center
07:32AM 38.1633 -78.7372 228° Southwest 441 507 32,000  Level Washington Center
07:33AM 38.0831 -78.8525 229° Southwest 441 507 32,000  Level Washington Center
07:34AM 38.0006 -78.9700 228° Southwest 446 513 32,000  Level Washington Center
07:35AM 37.9267 -79.0747 228° Southwest 451 519 32,000  Level Washington Center
07:36AM 37.8461 -79.1894 228° Southwest 451 519 32,000  Level Washington Center
07:37AM 37.7633 -79.3036 227° Southwest 451 519 32,000  Level Washington Center
07:38AM 37.6697 -79.4303 227° Southwest 451 519 32,000  Level Washington Center
07:39AM 37.5953 -79.5339 228° Southwest 451 519 32,000  Level Washington Center
07:40AM 37.5036 -79.6575 227° Southwest 451 519 32,000  Level Washington Center
07:41AM 37.4269 -79.7631 228° Southwest 451 519 32,000  Level Washington Center
07:42AM 37.3458 -79.8764 228° Southwest 454 522 32,000  Level Washington Center
07:43AM 37.2558 -79.9992 227° Southwest 449 517 32,000  Level Washington Center
07:44AM 37.1744 -80.1092 227° Southwest 444 511 32,000  Level Washington Center
07:45AM 37.1236 -80.1758 226° Southwest 439 505 32,000  Level Atlanta Center
07:46AM 37.0414 -80.2864 227° Southwest 439 505 32,000  Level Atlanta Center
07:47AM 36.9533 -80.4025 227° Southwest 433 498 32,000  Level Atlanta Center
07:48AM 36.8708 -80.5100 226° Southwest 428 493 32,000  Level Atlanta Center
07:49AM 36.7886 -80.6200 227° Southwest 434 499 32,000  Level Atlanta Center
07:50AM 36.7122 -80.7267 228° Southwest 429 494 32,000  Level Atlanta Center
07:51AM 36.6294 -80.8336 226° Southwest 429 494 32,000  Level Atlanta Center
07:52AM 36.5489 -80.9403 227° Southwest 434 499 32,000  Level Atlanta Center
07:53AM 36.4661 -81.0494 227° Southwest 429 494 32,000  Level Atlanta Center
07:54AM 36.3872 -81.1528 227° Southwest 429 494 32,000  Level Atlanta Center
07:55AM 36.3042 -81.2614 227° Southwest 435 501 32,000  Level Atlanta Center
07:56AM 36.2231 -81.3672 226° Southwest 435 501 32,000  Level Atlanta Center
07:57AM 36.1442 -81.4728 227° Southwest 428 493 32,000  Level Atlanta Center
07:58AM 36.0608 -81.5781 226° Southwest 435 501 32,000  Level Atlanta Center
07:59AM 35.9814 -81.6831 227° Southwest 430 495 32,000  Level Atlanta Center
08:00AM 35.9000 -81.7856 226° Southwest 430 495 32,000  Level Atlanta Center
08:01AM 35.8183 -81.8903 226° Southwest 430 495 32,000  Level Atlanta Center
08:02AM 35.7428 -81.9817 224° Southwest 430 495 32,000  Level Atlanta Center
08:03AM 35.6653 -82.0883 228° Southwest 425 489 32,000  Level Atlanta Center
08:04AM 35.5833 -82.1900 225° Southwest 430 495 32,000  Level Atlanta Center
08:05AM 35.5014 -82.2939 226° Southwest 430 495 32,000  Level Atlanta Center
08:06AM 35.4214 -82.3950 226° Southwest 430 495 32,000 -540 Level Atlanta Center
08:07AM 35.3392 -82.4983 226° Southwest 425 489 31,000 -1,380 Descending Atlanta Center
08:08AM 35.2592 -82.5967 225° Southwest 425 489 29,300 -1,500 Descending Atlanta Center
08:09AM 35.1769 -82.6972 225° Southwest 425 489 28,000 -840 Descending Atlanta Center
08:10AM 35.0944 -82.8050 227° Southwest 430 495 27,700 -780 Descending Atlanta Center
08:11AM 35.0119 -82.9053 225° Southwest 430 495 26,500 -1,080 Descending Atlanta Center
08:12AM 34.9294 -83.0078 226° Southwest 430 495 25,600 -900 Descending Atlanta Center
08:13AM 34.8489 -83.1047 225° Southwest 425 489 24,700 -840 Descending Atlanta Center
08:14AM 34.7642 -83.2144 227° Southwest 414 476 24,000 -360 Descending Atlanta Center
08:15AM 34.6894 -83.3036 224° Southwest 409 471 24,000  Level Atlanta Center
08:16AM 34.5897 -83.3903 216° Southwest 402 463 24,000 -300 Level Atlanta Center
08:17AM 34.5006 -83.4717 217° Southwest 402 463 23,400 -1,080 Descending Atlanta Center
08:18AM 34.4131 -83.5528 217° Southwest 407 468 21,900 -1,800 Descending Atlanta Center
08:19AM 34.3300 -83.6264 216° Southwest 392 451 19,900 -2,040 Descending Atlanta Center
08:20AM 34.2531 -83.6969 217° Southwest 367 422 17,900 -1,800 Descending Atlanta Center
08:21AM 34.1800 -83.7625 217° Southwest 345 397 16,400 -1,800 Descending Atlanta Center
08:22AM 34.1050 -83.8306 217° Southwest 336 387 14,400 -1,560 Descending Atlanta Center
08:23AM 34.0425 -83.8883 217° Southwest 331 381 13,300 -1,200 Descending Atlanta Center
08:24AM 33.9800 -83.9586 223° Southwest 319 367 12,000 -660 Descending Atlanta Center
08:25AM 33.9153 -84.0314 223° Southwest 319 367 12,000  Level Atlanta Center
08:26AM 33.8486 -84.0989 220° Southwest 319 367 12,000  Level Atlanta Center
08:27AM 33.7711 -84.1561 212° Southwest 306 352 12,000  Level Atlanta Center
08:28AM 33.7231 -84.2211 228° Southwest 257 296 12,000 -120 Level Atlanta Center
08:29AM 33.7272 -84.3186 273° West 262 302 11,800 -1,320 Descending Atlanta Center
08:30AM 33.7333 -84.4333 274° West 289 333 9,200 -2,040 Descending Atlanta TRACON
08:31AM 33.7333 -84.5333 270° West 269 310 7,200 -1,440 Descending Atlanta TRACON
08:32AM 33.7333 -84.6167 270° West 234 269 6,200 -1,200 Descending Atlanta TRACON
08:33AM 33.7333 -84.6833 270° West 222 255 5,000 -600 Descending Atlanta TRACON
08:34AM 33.7333 -84.7667 270° West 217 250 5,000  Level Atlanta TRACON
08:35AM 33.7333 -84.8333 270° West 221 254 5,000  Level Atlanta TRACON
08:36AM 33.7333 -84.9000 270° West 187 215 5,000  Level Atlanta TRACON
08:37AM 33.6833 -84.9167 196° South 194 223 5,000  Level Atlanta TRACON
08:38AM 33.6500 -84.8833 140° Southeast 205 236 5,000  Level Atlanta TRACON
08:39AM 33.6500 -84.8167 90° East 208 239 5,000  Level Atlanta TRACON
08:40AM 33.6500 -84.7500 90° East 206 237 5,000 -60 Level Atlanta TRACON
08:41AM 33.6500 -84.6833 90° East 204 235 4,900 -120 Descending Atlanta TRACON